createdAt,value
2019-03-30T00:00:20.547Z,21.95
2019-03-30T00:02:47.280Z,21.94
2019-03-30T00:05:13.885Z,21.93
2019-03-30T00:07:40.575Z,21.95
2019-03-30T00:10:07.214Z,21.91
2019-03-30T00:12:33.850Z,21.88
2019-03-30T00:15:00.496Z,21.93
2019-03-30T00:17:27.180Z,21.91
2019-03-30T00:19:53.825Z,21.88
2019-03-30T00:22:20.472Z,21.89
2019-03-30T00:24:47.194Z,21.87
2019-03-30T00:27:13.741Z,21.90
2019-03-30T00:29:40.433Z,21.90
2019-03-30T00:32:07.073Z,21.87
2019-03-30T00:34:33.704Z,21.85
2019-03-30T00:37:00.405Z,21.87
2019-03-30T00:39:27.038Z,21.87
2019-03-30T00:41:53.721Z,21.90
2019-03-30T00:44:20.411Z,21.83
2019-03-30T00:46:48.166Z,21.84
2019-03-30T00:49:13.700Z,21.86
2019-03-30T00:51:40.384Z,21.86
2019-03-30T00:54:07.023Z,21.82
2019-03-30T00:56:33.668Z,21.82
2019-03-30T00:59:00.352Z,21.80
2019-03-30T01:01:27.032Z,21.82
2019-03-30T01:03:53.714Z,21.83
2019-03-30T01:06:20.353Z,21.85
2019-03-30T01:08:47.256Z,21.79
2019-03-30T01:11:13.699Z,21.78
2019-03-30T01:13:40.326Z,21.77
2019-03-30T01:16:06.975Z,21.77
2019-03-30T01:18:33.642Z,21.75
2019-03-30T01:21:00.316Z,21.75
2019-03-30T01:23:27.044Z,21.77
2019-03-30T01:25:53.680Z,21.74
2019-03-30T01:28:20.410Z,21.76
2019-03-30T01:30:47.190Z,21.76
2019-03-30T01:33:13.717Z,21.71
2019-03-30T01:35:40.374Z,21.71
2019-03-30T01:38:07.042Z,21.73
2019-03-30T01:40:33.674Z,21.74
2019-03-30T01:43:00.316Z,21.69
2019-03-30T01:45:26.990Z,21.70
2019-03-30T01:47:53.694Z,21.69
2019-03-30T01:50:20.337Z,21.68
2019-03-30T01:52:47.237Z,21.68
2019-03-30T01:55:13.661Z,21.67
2019-03-30T01:57:40.302Z,21.69
2019-03-30T02:00:06.953Z,21.67
2019-03-30T02:02:33.633Z,21.62
2019-03-30T02:05:00.385Z,21.63
2019-03-30T02:07:26.963Z,21.62
2019-03-30T02:09:53.620Z,21.57
2019-03-30T02:12:20.327Z,21.59
2019-03-30T02:14:46.940Z,21.61
2019-03-30T02:17:13.585Z,21.59
2019-03-30T02:19:40.231Z,21.57
2019-03-30T02:22:06.866Z,21.57
2019-03-30T02:24:33.526Z,21.55
2019-03-30T02:27:00.173Z,21.53
2019-03-30T02:29:26.817Z,21.54
2019-03-30T02:31:53.501Z,21.53
2019-03-30T02:34:20.135Z,21.52
2019-03-30T02:36:46.785Z,21.53
2019-03-30T02:39:13.432Z,21.54
2019-03-30T02:41:40.064Z,21.51
2019-03-30T02:44:06.740Z,21.54
2019-03-30T02:46:33.380Z,21.50
2019-03-30T02:49:00.023Z,21.48
2019-03-30T02:51:26.656Z,21.46
2019-03-30T02:53:53.334Z,21.47
2019-03-30T02:56:19.970Z,21.43
2019-03-30T02:58:46.632Z,21.47
2019-03-30T03:01:13.309Z,21.44
2019-03-30T03:03:39.946Z,21.40
2019-03-30T03:06:06.671Z,21.42
2019-03-30T03:08:33.362Z,21.39
2019-03-30T03:10:59.993Z,21.36
2019-03-30T03:13:26.641Z,21.37
2019-03-30T03:15:53.323Z,21.35
2019-03-30T03:18:19.964Z,21.36
2019-03-30T03:20:46.653Z,21.32
2019-03-30T03:23:13.286Z,21.30
2019-03-30T03:25:39.942Z,21.33
2019-03-30T03:28:06.585Z,21.29
2019-03-30T03:30:33.224Z,21.23
2019-03-30T03:32:59.924Z,21.25
2019-03-30T03:35:26.576Z,21.24
2019-03-30T03:37:53.239Z,21.25
2019-03-30T03:40:19.880Z,21.26
2019-03-30T03:42:46.562Z,21.22
2019-03-30T03:45:13.229Z,21.22
2019-03-30T03:47:39.890Z,21.21
2019-03-30T03:50:06.525Z,21.21
2019-03-30T03:52:33.224Z,21.20
2019-03-30T03:54:59.860Z,21.20
2019-03-30T03:57:26.541Z,21.19
2019-03-30T03:59:53.240Z,21.20
2019-03-30T04:02:19.885Z,21.13
2019-03-30T04:04:47.674Z,21.17
2019-03-30T04:07:13.211Z,21.15
2019-03-30T04:09:39.902Z,21.12
2019-03-30T04:12:06.537Z,21.11
2019-03-30T04:14:33.175Z,21.09
2019-03-30T04:16:59.825Z,21.10
2019-03-30T04:19:26.500Z,21.08
2019-03-30T04:21:53.157Z,21.10
2019-03-30T04:24:19.797Z,21.06
2019-03-30T04:26:46.454Z,21.09
2019-03-30T04:29:13.138Z,21.07
2019-03-30T04:31:39.775Z,21.05
2019-03-30T04:34:07.394Z,21.07
2019-03-30T04:36:36.825Z,21.09
2019-03-30T04:39:03.476Z,21.10
2019-03-30T04:41:30.121Z,21.09
2019-03-30T04:43:56.800Z,21.10
2019-03-30T04:46:23.450Z,21.09
2019-03-30T04:48:50.195Z,21.12
2019-03-30T04:51:16.797Z,21.13
2019-03-30T04:53:43.453Z,21.17
2019-03-30T04:56:10.101Z,21.13
2019-03-30T04:58:36.738Z,21.16
2019-03-30T05:01:03.411Z,21.13
2019-03-30T05:03:30.096Z,21.20
2019-03-30T05:05:56.750Z,21.27
2019-03-30T05:08:23.398Z,21.38
2019-03-30T05:10:50.050Z,21.46
2019-03-30T05:13:16.684Z,21.52
2019-03-30T05:15:43.359Z,21.61
2019-03-30T05:18:10.048Z,21.70
2019-03-30T05:20:36.691Z,21.79
2019-03-30T05:23:03.352Z,21.84
2019-03-30T05:25:30.003Z,21.91
2019-03-30T05:27:56.652Z,21.98
2019-03-30T05:30:23.334Z,22.03
2019-03-30T05:33:04.622Z,22.11
2019-03-30T05:35:16.774Z,22.15
2019-03-30T05:37:43.406Z,22.18
2019-03-30T05:40:10.089Z,22.21
2019-03-30T05:42:36.730Z,22.29
2019-03-30T05:45:03.377Z,22.31
2019-03-30T05:47:30.022Z,22.39
2019-03-30T05:49:56.746Z,22.39
2019-03-30T05:52:26.830Z,22.41
2019-03-30T05:54:50.022Z,22.45
2019-03-30T05:57:16.672Z,22.50
2019-03-30T05:59:43.370Z,22.54
2019-03-30T06:02:10.086Z,22.57
2019-03-30T06:04:36.744Z,22.65
2019-03-30T06:07:03.419Z,22.66
2019-03-30T06:09:30.047Z,22.70
2019-03-30T06:11:56.720Z,22.70
2019-03-30T06:14:23.326Z,22.75
2019-03-30T06:16:49.962Z,22.75
2019-03-30T06:19:16.610Z,22.78
2019-03-30T06:21:43.254Z,22.85
2019-03-30T06:24:09.940Z,22.83
2019-03-30T06:26:36.589Z,22.85
2019-03-30T06:29:03.251Z,22.89
2019-03-30T06:31:29.903Z,22.89
2019-03-30T06:33:56.579Z,22.91
2019-03-30T06:36:23.217Z,22.93
2019-03-30T06:38:49.914Z,22.98
2019-03-30T06:41:16.585Z,23.02
2019-03-30T06:43:43.230Z,23.05
2019-03-30T06:46:09.920Z,23.10
2019-03-30T06:48:36.559Z,23.16
2019-03-30T06:51:03.201Z,23.23
2019-03-30T06:53:29.856Z,23.27
2019-03-30T06:55:56.498Z,23.35
2019-03-30T06:58:23.133Z,23.08
2019-03-30T07:00:49.785Z,23.12
2019-03-30T07:03:16.523Z,23.07
2019-03-30T07:05:43.175Z,23.18
2019-03-30T07:08:09.811Z,23.39
2019-03-30T07:10:38.370Z,23.46
2019-03-30T07:13:03.134Z,23.45
2019-03-30T07:15:29.774Z,23.48
2019-03-30T07:17:56.425Z,23.53
2019-03-30T07:20:23.069Z,23.64
2019-03-30T07:22:51.232Z,23.65
2019-03-30T07:25:16.357Z,23.63
2019-03-30T07:27:42.996Z,23.69
2019-03-30T07:30:09.654Z,23.73
2019-03-30T07:32:36.324Z,23.79
2019-03-30T07:35:02.967Z,23.83
2019-03-30T07:37:29.616Z,23.89
2019-03-30T07:39:56.275Z,23.91
2019-03-30T07:42:22.957Z,23.97
2019-03-30T07:44:49.612Z,23.98
2019-03-30T07:47:16.285Z,23.94
2019-03-30T07:49:42.970Z,23.99
2019-03-30T07:52:09.630Z,23.97
2019-03-30T07:54:36.363Z,23.98
2019-03-30T07:57:06.218Z,23.98
2019-03-30T07:59:29.728Z,23.93
2019-03-30T08:01:56.367Z,23.91
2019-03-30T08:04:23.046Z,23.87
2019-03-30T08:06:49.816Z,23.86
2019-03-30T08:09:16.520Z,23.82
2019-03-30T08:11:43.164Z,23.84
2019-03-30T08:14:09.801Z,23.81
2019-03-30T08:16:36.495Z,23.79
2019-03-30T08:19:03.184Z,23.75
2019-03-30T08:21:29.820Z,23.77
2019-03-30T08:23:56.458Z,23.76
2019-03-30T08:26:23.104Z,23.76
2019-03-30T08:28:49.740Z,23.75
2019-03-30T08:31:16.380Z,23.71
2019-03-30T08:33:43.016Z,23.68
2019-03-30T08:36:09.654Z,23.67
2019-03-30T08:38:36.341Z,23.67
2019-03-30T08:41:02.986Z,23.67
2019-03-30T08:43:29.637Z,23.68
2019-03-30T08:45:56.321Z,23.72
2019-03-30T08:48:22.974Z,23.73
2019-03-30T08:50:49.623Z,23.75
2019-03-30T08:53:16.303Z,23.80
2019-03-30T08:55:42.981Z,23.81
2019-03-30T08:58:09.615Z,23.84
2019-03-30T09:00:36.444Z,23.88
2019-03-30T09:03:03.085Z,23.87
2019-03-30T09:05:29.762Z,23.93
2019-03-30T09:07:56.404Z,23.96
2019-03-30T09:10:23.184Z,24.00
2019-03-30T09:12:49.832Z,24.04
2019-03-30T09:15:16.470Z,24.05
2019-03-30T09:17:43.120Z,24.09
2019-03-30T09:20:09.766Z,24.08
2019-03-30T09:22:36.416Z,24.13
2019-03-30T09:25:03.104Z,24.14
2019-03-30T09:27:29.747Z,24.16
2019-03-30T09:29:56.432Z,24.13
2019-03-30T09:32:23.075Z,24.13
2019-03-30T09:34:49.713Z,24.08
2019-03-30T09:37:16.362Z,24.06
2019-03-30T09:39:43.003Z,24.06
2019-03-30T09:42:09.762Z,24.06
2019-03-30T09:44:36.401Z,24.06
2019-03-30T09:47:03.053Z,24.04
2019-03-30T09:49:29.729Z,24.00
2019-03-30T09:51:56.418Z,24.01
2019-03-30T09:54:24.285Z,24.05
2019-03-30T09:56:49.759Z,24.03
2019-03-30T09:59:16.403Z,24.01
2019-03-30T10:01:43.049Z,24.01
2019-03-30T10:04:09.708Z,23.98
2019-03-30T10:06:36.359Z,23.98
2019-03-30T10:09:03.004Z,24.03
2019-03-30T10:11:29.675Z,24.02
2019-03-30T10:13:56.302Z,24.04
2019-03-30T10:16:22.948Z,24.01
2019-03-30T10:18:49.585Z,24.04
2019-03-30T10:21:16.236Z,24.04
2019-03-30T10:23:42.874Z,24.08
2019-03-30T10:26:09.566Z,24.09
2019-03-30T10:28:36.205Z,24.06
2019-03-30T10:31:02.859Z,24.10
2019-03-30T10:33:29.490Z,24.11
2019-03-30T10:35:56.181Z,24.06
2019-03-30T10:38:22.838Z,24.11
2019-03-30T10:40:49.696Z,24.14
2019-03-30T10:43:16.406Z,24.18
2019-03-30T10:45:43.061Z,24.19
2019-03-30T10:48:09.793Z,24.23
2019-03-30T10:50:36.436Z,24.29
2019-03-30T10:53:03.087Z,24.35
2019-03-30T10:55:29.715Z,24.41
2019-03-30T10:57:58.609Z,24.45
2019-03-30T11:00:23.059Z,24.47
2019-03-30T11:02:49.744Z,24.49
2019-03-30T11:05:16.391Z,24.53
2019-03-30T11:07:43.039Z,24.56
2019-03-30T11:10:09.678Z,24.57
2019-03-30T11:12:36.311Z,24.61
2019-03-30T11:15:02.971Z,24.62
2019-03-30T11:17:29.608Z,24.64
2019-03-30T11:19:56.288Z,24.63
2019-03-30T11:22:22.926Z,24.67
2019-03-30T11:24:49.607Z,24.67
2019-03-30T11:27:16.287Z,24.69
2019-03-30T11:29:42.970Z,24.68
2019-03-30T11:32:09.608Z,24.71
2019-03-30T11:34:36.287Z,24.72
2019-03-30T11:37:02.935Z,24.72
2019-03-30T11:39:29.558Z,24.72
2019-03-30T11:41:56.231Z,24.71
2019-03-30T11:44:22.872Z,24.72
2019-03-30T11:46:49.510Z,24.69
2019-03-30T11:49:16.160Z,24.68
2019-03-30T11:51:42.804Z,24.68
2019-03-30T11:54:09.435Z,24.68
2019-03-30T11:56:36.113Z,24.70
2019-03-30T11:59:02.802Z,24.70
2019-03-30T12:01:29.489Z,24.71
2019-03-30T12:03:56.132Z,24.72
2019-03-30T12:06:22.834Z,24.69
2019-03-30T12:08:49.516Z,24.72
2019-03-30T12:11:16.169Z,24.74
2019-03-30T12:13:42.889Z,24.74
2019-03-30T12:16:09.523Z,24.72
2019-03-30T12:18:36.227Z,24.71
2019-03-30T12:21:02.873Z,24.69
2019-03-30T12:23:29.523Z,24.73
2019-03-30T12:25:56.161Z,24.70
2019-03-30T12:28:22.858Z,24.68
2019-03-30T12:30:49.647Z,24.69
2019-03-30T12:33:16.267Z,24.68
2019-03-30T12:35:42.935Z,24.65
2019-03-30T12:38:09.580Z,24.66
2019-03-30T12:40:36.227Z,24.58
2019-03-30T12:43:02.894Z,24.61
2019-03-30T12:45:29.566Z,24.65
2019-03-30T12:47:56.211Z,24.64
2019-03-30T12:50:22.875Z,24.66
2019-03-30T12:52:49.521Z,24.64
2019-03-30T12:55:16.232Z,24.63
2019-03-30T12:57:42.927Z,24.61
2019-03-30T13:00:09.565Z,24.63
2019-03-30T13:02:36.212Z,24.61
2019-03-30T13:05:02.861Z,24.61
2019-03-30T13:07:29.537Z,24.61
2019-03-30T13:09:56.191Z,24.61
2019-03-30T13:12:22.843Z,24.62
2019-03-30T13:14:49.487Z,24.60
2019-03-30T13:17:16.178Z,24.61
2019-03-30T13:19:42.844Z,24.59
2019-03-30T13:22:09.473Z,24.59
2019-03-30T13:24:36.121Z,24.59
2019-03-30T13:27:02.756Z,24.59
2019-03-30T13:29:29.442Z,24.59
2019-03-30T13:31:56.077Z,24.56
2019-03-30T13:34:22.740Z,24.57
2019-03-30T13:36:49.378Z,24.59
2019-03-30T13:39:16.892Z,24.57
2019-03-30T13:41:43.537Z,24.59
2019-03-30T13:44:10.364Z,24.57
2019-03-30T13:46:37.027Z,24.58
2019-03-30T13:49:03.656Z,24.57
2019-03-30T13:51:30.345Z,24.55
2019-03-30T13:53:56.985Z,24.57
2019-03-30T13:56:23.623Z,24.54
2019-03-30T13:58:50.280Z,24.56
2019-03-30T14:01:16.919Z,24.55
2019-03-30T14:03:43.620Z,24.55
2019-03-30T14:06:10.261Z,24.56
2019-03-30T14:08:36.909Z,24.54
2019-03-30T14:11:03.546Z,24.53
2019-03-30T14:13:30.248Z,24.53
2019-03-30T14:15:56.932Z,24.52
2019-03-30T14:18:23.573Z,24.53
2019-03-30T14:20:50.315Z,24.55
2019-03-30T14:23:16.953Z,24.53
2019-03-30T14:25:43.647Z,24.50
2019-03-30T14:28:10.291Z,24.52
2019-03-30T14:30:36.932Z,24.51
2019-03-30T14:33:03.644Z,24.51
2019-03-30T14:35:30.359Z,24.48
2019-03-30T14:37:57.113Z,24.50
2019-03-30T14:40:23.755Z,24.48
2019-03-30T14:42:50.488Z,24.48
2019-03-30T14:45:17.143Z,24.46
2019-03-30T14:47:43.833Z,24.46
2019-03-30T14:50:10.479Z,24.45
2019-03-30T14:52:37.141Z,24.44
2019-03-30T14:55:03.780Z,24.42
2019-03-30T14:57:30.431Z,24.43
2019-03-30T14:59:57.127Z,24.43
2019-03-30T15:02:23.820Z,24.31
2019-03-30T15:04:50.465Z,24.22
2019-03-30T15:07:17.144Z,24.21
2019-03-30T15:09:43.788Z,24.13
2019-03-30T15:12:10.462Z,24.14
2019-03-30T15:14:37.115Z,24.15
2019-03-30T15:17:03.743Z,24.13
2019-03-30T15:19:30.388Z,24.15
2019-03-30T15:21:57.066Z,24.18
2019-03-30T15:24:23.739Z,24.19
2019-03-30T15:26:59.777Z,24.17
2019-03-30T15:29:17.044Z,24.19
2019-03-30T15:31:43.692Z,24.17
2019-03-30T15:34:10.387Z,24.18
2019-03-30T15:36:37.075Z,24.18
2019-03-30T15:39:03.756Z,24.15
2019-03-30T15:41:30.420Z,24.17
2019-03-30T15:43:57.067Z,24.18
2019-03-30T15:46:23.710Z,24.18
2019-03-30T15:48:50.395Z,24.16
2019-03-30T15:51:17.110Z,24.16
2019-03-30T15:53:43.832Z,24.14
2019-03-30T15:56:10.514Z,24.13
2019-03-30T15:58:37.197Z,24.12
2019-03-30T16:01:03.842Z,24.09
2019-03-30T16:03:30.526Z,24.09
2019-03-30T16:05:57.218Z,24.06
2019-03-30T16:08:23.851Z,24.04
2019-03-30T16:10:52.322Z,24.03
2019-03-30T16:13:17.128Z,24.02
2019-03-30T16:15:44.729Z,24.01
2019-03-30T16:18:10.430Z,24.00
2019-03-30T16:20:37.080Z,23.97
2019-03-30T16:23:03.760Z,23.96
2019-03-30T16:25:30.400Z,23.95
2019-03-30T16:27:57.040Z,23.96
2019-03-30T16:30:23.743Z,23.93
2019-03-30T16:32:50.376Z,23.94
2019-03-30T16:35:17.062Z,23.91
2019-03-30T16:37:43.705Z,23.90
2019-03-30T16:40:10.355Z,23.89
2019-03-30T16:42:36.987Z,23.90
2019-03-30T16:45:03.680Z,23.90
2019-03-30T16:47:30.325Z,23.87
2019-03-30T16:49:56.966Z,23.88
2019-03-30T16:52:23.658Z,23.87
2019-03-30T16:54:50.399Z,23.84
2019-03-30T16:57:16.959Z,23.84
2019-03-30T16:59:43.633Z,23.84
2019-03-30T17:02:10.312Z,23.84
2019-03-30T17:04:36.924Z,23.80
2019-03-30T17:07:03.558Z,23.80
2019-03-30T17:09:30.201Z,23.78
2019-03-30T17:11:56.840Z,23.77
2019-03-30T17:14:23.483Z,23.76
2019-03-30T17:16:50.117Z,23.76
2019-03-30T17:19:16.799Z,23.77
2019-03-30T17:21:43.433Z,23.73
2019-03-30T17:24:10.094Z,23.74
2019-03-30T17:26:36.730Z,23.71
2019-03-30T17:29:03.402Z,23.72
2019-03-30T17:31:30.084Z,23.70
2019-03-30T17:33:56.757Z,23.68
2019-03-30T17:36:23.398Z,23.68
2019-03-30T17:38:50.150Z,23.67
2019-03-30T17:41:16.759Z,23.67
2019-03-30T17:43:46.432Z,23.67
2019-03-30T17:46:13.070Z,23.67
2019-03-30T17:48:39.708Z,23.64
2019-03-30T17:51:06.387Z,23.65
2019-03-30T17:53:33.039Z,23.62
2019-03-30T17:56:01.910Z,23.62
2019-03-30T17:58:26.336Z,23.61
2019-03-30T18:00:52.992Z,23.61
2019-03-30T18:03:19.623Z,23.59
2019-03-30T18:05:46.310Z,23.57
2019-03-30T18:08:12.961Z,23.58
2019-03-30T18:10:39.696Z,23.56
2019-03-30T18:13:06.331Z,23.54
2019-03-30T18:15:34.652Z,23.54
2019-03-30T18:17:59.707Z,23.54
2019-03-30T18:20:26.448Z,23.54
2019-03-30T18:22:53.202Z,23.51
2019-03-30T18:25:19.900Z,23.53
2019-03-30T18:27:46.547Z,23.50
2019-03-30T18:30:13.233Z,23.49
2019-03-30T18:32:39.897Z,23.47
2019-03-30T18:35:06.549Z,23.47
2019-03-30T18:37:33.252Z,23.46
2019-03-30T18:39:59.891Z,23.44
2019-03-30T18:42:26.530Z,23.42
2019-03-30T18:44:53.192Z,23.41
2019-03-30T18:47:19.844Z,23.39
2019-03-30T18:49:46.481Z,23.35
2019-03-30T18:52:13.117Z,23.34
2019-03-30T18:54:39.773Z,23.31
2019-03-30T18:57:06.408Z,23.30
2019-03-30T18:59:33.095Z,23.31
2019-03-30T19:01:59.740Z,23.28
2019-03-30T19:04:26.387Z,23.25
2019-03-30T19:06:53.045Z,23.26
2019-03-30T19:09:19.679Z,23.24
2019-03-30T19:11:46.354Z,23.23
2019-03-30T19:14:13.005Z,23.19
2019-03-30T19:16:39.725Z,23.16
2019-03-30T19:19:06.374Z,23.18
2019-03-30T19:21:33.205Z,23.16
2019-03-30T19:23:59.848Z,23.19
2019-03-30T19:26:26.530Z,23.14
2019-03-30T19:28:56.534Z,23.12
2019-03-30T19:31:19.829Z,23.12
2019-03-30T19:33:46.506Z,23.07
2019-03-30T19:36:13.192Z,23.07
2019-03-30T19:38:39.841Z,23.04
2019-03-30T19:41:06.525Z,23.04
2019-03-30T19:43:33.175Z,22.98
2019-03-30T19:45:59.818Z,23.00
2019-03-30T19:48:26.503Z,22.97
2019-03-30T19:50:53.137Z,22.95
2019-03-30T19:53:19.811Z,22.94
2019-03-30T19:55:46.493Z,22.93
2019-03-30T19:58:13.145Z,22.95
2019-03-30T20:00:39.841Z,22.92
2019-03-30T20:03:06.523Z,22.89
2019-03-30T20:05:33.170Z,22.87
2019-03-30T20:08:11.532Z,22.87
2019-03-30T20:10:26.506Z,22.85
2019-03-30T20:12:53.269Z,22.87
2019-03-30T20:15:19.917Z,22.84
2019-03-30T20:17:46.560Z,22.83
2019-03-30T20:20:13.253Z,22.81
2019-03-30T20:22:39.949Z,22.78
2019-03-30T20:25:06.598Z,22.78
2019-03-30T20:27:33.243Z,22.78
2019-03-30T20:29:59.892Z,22.74
2019-03-30T20:32:26.584Z,22.75
2019-03-30T20:34:53.234Z,22.71
2019-03-30T20:37:19.885Z,22.74
2019-03-30T20:39:46.642Z,22.72
2019-03-30T20:42:13.285Z,22.70
2019-03-30T20:44:39.930Z,22.68
2019-03-30T20:47:06.625Z,22.72
2019-03-30T20:49:33.285Z,22.69
2019-03-30T20:51:59.921Z,22.69
2019-03-30T20:54:26.616Z,22.67
2019-03-30T20:56:53.303Z,22.62
2019-03-30T20:59:19.982Z,22.64
2019-03-30T21:01:46.621Z,22.61
2019-03-30T21:04:13.339Z,22.61
2019-03-30T21:06:40.004Z,22.62
2019-03-30T21:09:06.678Z,22.63
2019-03-30T21:11:33.361Z,22.61
2019-03-30T21:14:00.020Z,22.60
2019-03-30T21:16:26.706Z,22.57
2019-03-30T21:18:53.375Z,22.54
2019-03-30T21:21:20.016Z,22.52
2019-03-30T21:23:46.672Z,22.52
2019-03-30T21:26:13.322Z,22.47
2019-03-30T21:28:39.964Z,22.50
2019-03-30T21:31:06.610Z,22.52
2019-03-30T21:33:33.306Z,22.50
2019-03-30T21:35:59.938Z,22.47
2019-03-30T21:38:26.581Z,22.44
2019-03-30T21:40:53.254Z,22.45
2019-03-30T21:43:19.940Z,22.45
2019-03-30T21:45:46.567Z,22.44
2019-03-30T21:48:13.206Z,22.44
2019-03-30T21:50:39.856Z,22.43
2019-03-30T21:53:06.544Z,22.42
2019-03-30T21:55:33.194Z,22.41
2019-03-30T21:57:59.834Z,22.43
2019-03-30T22:00:26.518Z,22.41
2019-03-30T22:02:53.147Z,22.38
2019-03-30T22:05:19.793Z,22.36
2019-03-30T22:07:46.459Z,22.36
2019-03-30T22:10:13.110Z,22.35
2019-03-30T22:12:39.816Z,22.34
2019-03-30T22:15:06.470Z,22.32
2019-03-30T22:17:33.123Z,22.31
2019-03-30T22:19:59.765Z,22.29
2019-03-30T22:22:26.462Z,22.26
2019-03-30T22:24:53.092Z,22.29
2019-03-30T22:27:19.787Z,22.26
2019-03-30T22:29:46.521Z,22.25
2019-03-30T22:32:13.089Z,22.25
2019-03-30T22:34:39.732Z,22.25
2019-03-30T22:37:06.448Z,22.23
2019-03-30T22:39:33.093Z,22.24
2019-03-30T22:41:59.737Z,22.21
2019-03-30T22:44:26.389Z,22.21
2019-03-30T22:46:53.030Z,22.19
2019-03-30T22:49:19.667Z,22.17
2019-03-30T22:51:46.414Z,22.16
2019-03-30T22:54:13.051Z,22.17
2019-03-30T22:56:39.694Z,22.19
2019-03-30T22:59:06.333Z,22.16
2019-03-30T23:01:32.969Z,22.10
2019-03-30T23:03:59.652Z,22.03
2019-03-30T23:06:26.289Z,21.90
2019-03-30T23:08:52.927Z,21.82
2019-03-30T23:11:19.602Z,21.85
2019-03-30T23:13:46.286Z,21.83
2019-03-30T23:16:12.920Z,21.87
2019-03-30T23:18:39.574Z,21.88
2019-03-30T23:21:06.218Z,21.90
2019-03-30T23:23:32.892Z,21.90
2019-03-30T23:25:59.539Z,21.88
2019-03-30T23:28:26.193Z,21.87
2019-03-30T23:30:54.655Z,21.87
2019-03-30T23:33:19.499Z,21.88
2019-03-30T23:35:46.136Z,21.88
2019-03-30T23:38:12.810Z,21.91
2019-03-30T23:40:39.445Z,21.88
2019-03-30T23:43:06.092Z,21.85
2019-03-30T23:45:32.768Z,21.86
2019-03-30T23:47:59.435Z,21.83
2019-03-30T23:50:26.116Z,21.82
2019-03-30T23:52:52.776Z,21.85
2019-03-30T23:55:19.415Z,21.83
2019-03-30T23:57:46.115Z,21.80
